Sakura — JG5711 — position and weather

sailwx.info

Track history (hours):
 
Tides and Currents Weather Stations Pressure Air Temp Water Temp Dewpoint Dewpoint Depression Visibility Wind Speed Wind Dir Waves Ship Positions

Sakura

Last reported at 2016-Aug-27 00:33 UTC. Time now 2016-Aug-27 01:12 UTC.
Position N 35°28' E 139°42'.

Length 32 m; draft 3.6 m.

Type: Tug. MMSI: 431101178.

Date/timePositionNaut miles runAvg speedWind from/ knotsBaromVisibWave heightAir tempDewpointWater temp
2016-Aug-27 00:33N 35°28' E 139°42'1 0.8
2016-Aug-26 23:33N 35°27' E 139°42'3 2.6
2016-Aug-26 22:34N 35°30' E 139°43'2 2.2
2016-Aug-26 21:34N 35°27' E 139°43'3 2.6
2016-Aug-26 20:33N 35°27' E 139°40'0 0.0
2016-Aug-26 06:33N 35°27' E 139°40'0 0.0
2016-Aug-26 04:33N 35°27' E 139°40'1 1.3
2016-Aug-26 03:34N 35°27' E 139°41'1 0.6
2016-Aug-26 02:33N 35°26' E 139°41'1 1.3
2016-Aug-26 01:34N 35°28' E 139°40'0 0.0
2016-Aug-26 00:34N 35°28' E 139°40'1 1.4
2016-Aug-25 23:34N 35°28' E 139°42'2 1.6
2016-Aug-25 22:33N 35°28' E 139°40'2 2.1
2016-Aug-25 21:33N 35°26' E 139°42'2 0.1
2016-Aug-25 08:23N 35°27' E 139°40'0 0.6
2016-Aug-25 07:33N 35°27' E 139°41'1 0.8
2016-Aug-25 06:34N 35°27' E 139°40'0 0.0
2016-Aug-25 04:33N 35°27' E 139°40'0 0.0
2016-Aug-25 03:34N 35°27' E 139°40'0 0.0
2016-Aug-25 02:34N 35°27' E 139°40'0 0.0
2016-Aug-25 01:34N 35°27' E 139°40'4 4.3
2016-Aug-25 00:33N 35°28' E 139°45'3 2.8
2016-Aug-24 23:34N 35°31' E 139°45'6 5.7
2016-Aug-24 22:33N 35°27' E 139°40'0 0.0
2016-Aug-24 08:11N 35°27' E 139°40'5 8.6
2016-Aug-24 07:33N 35°30' E 139°45'3 2.9
2016-Aug-24 06:33N 35°29' E 139°42'2 1.2
2016-Aug-24 04:33N 35°27' E 139°39'0 0.0
2016-Aug-24 03:33N 35°27' E 139°39'0 0.0
2016-Aug-24 02:33N 35°27' E 139°39'3 3.2
2016-Aug-24 01:34N 35°28' E 139°43'1 0.7
2016-Aug-24 00:33N 35°27' E 139°43'0 0.1
2016-Aug-23 23:33N 35°27' E 139°42'5 5.3
2016-Aug-23 22:34N 35°23' E 139°39'2 1.9
2016-Aug-23 21:34N 35°23' E 139°41'4 3.9
2016-Aug-23 20:34N 35°27' E 139°40'1 0.1
2016-Aug-23 10:34N 35°26' E 139°41'1 1.4
2016-Aug-23 09:34N 35°27' E 139°42'0 0.1
2016-Aug-23 08:34N 35°27' E 139°42'5 5.2
2016-Aug-23 07:34N 35°31' E 139°46'4 3.8
2016-Aug-23 06:34N 35°29' E 139°42'2 2.0
2016-Aug-23 05:34N 35°27' E 139°42'1 1.4
2016-Aug-23 04:34N 35°27' E 139°40'2 1.9
2016-Aug-23 03:33N 35°26' E 139°43'0 0.1
2016-Aug-23 02:34N 35°26' E 139°43'3 3.5
2016-Aug-23 01:34N 35°30' E 139°43'4 3.8
2016-Aug-23 00:34N 35°27' E 139°40'0 0.2
2016-Aug-22 23:34N 35°27' E 139°39'0 0.0
2016-Aug-22 22:34N 35°27' E 139°39'2 1.7
2016-Aug-22 21:34N 35°27' E 139°42'2 1.6
2016-Aug-22 20:34N 35°27' E 139°40'0 0.0
2016-Aug-22 07:10N 35°27' E 139°40'1 1.4
2016-Aug-22 06:33N 35°27' E 139°39'0 0.0
2016-Aug-22 05:33N 35°27' E 139°39'0 0.0
2016-Aug-22 04:33N 35°27' E 139°39'0 0.0
2016-Aug-22 03:33N 35°27' E 139°39'0 0.0
2016-Aug-22 02:33N 35°27' E 139°39'0 0.0
2016-Aug-22 01:33N 35°27' E 139°39'1 0.9
2016-Aug-22 00:33N 35°27' E 139°40'0 0.0
2016-Aug-21 23:33N 35°27' E 139°40'0 0.0
2016-Aug-21 22:33N 35°27' E 139°40'0 0.0
2016-Aug-21 09:26N 35°27' E 139°40'0 0.0
2016-Aug-21 08:33N 35°27' E 139°40'0 0.0
2016-Aug-21 07:33N 35°27' E 139°40'1 1.3
2016-Aug-21 06:33N 35°27' E 139°41'4 3.9
2016-Aug-21 05:33N 35°24' E 139°38'1 1.1
2016-Aug-21 04:33N 35°24' E 139°39'3 3.1
2016-Aug-21 03:33N 35°27' E 139°40'0 0.0
2016-Aug-21 02:33N 35°27' E 139°40'0 0.0
2016-Aug-21 01:34N 35°27' E 139°40'0 0.0
2016-Aug-21 00:33N 35°27' E 139°40'0 0.0
2016-Aug-20 23:33N 35°27' E 139°40'0 0.0
2016-Aug-20 22:33N 35°27' E 139°40'4 0.2
2016-Aug-19 23:33N 35°30' E 139°44'2 2.0
2016-Aug-19 22:33N 35°29' E 139°42'1 1.4
2016-Aug-19 21:33N 35°27' E 139°42'0 0.4
2016-Aug-19 20:33N 35°27' E 139°42'0 0.0
2016-Aug-19 19:33N 35°27' E 139°42'0 0.0
2016-Aug-19 18:33N 35°27' E 139°42'4 3.9
2016-Aug-19 17:33N 35°30' E 139°45'5 4.9
2016-Aug-19 16:33N 35°28' E 139°40'0 0.3
2016-Aug-19 15:33N 35°28' E 139°40'2 1.6
2016-Aug-19 14:33N 35°26' E 139°41'1 0.8
2016-Aug-19 13:33N 35°26' E 139°42'2 2.5
2016-Aug-19 12:33N 35°24' E 139°40'1 0.5
2016-Aug-19 11:34N 35°23' E 139°41'6 6.2
2016-Aug-19 10:34N 35°29' E 139°44'4 3.8
2016-Aug-19 09:34N 35°26' E 139°41'2 1.7
2016-Aug-19 08:33N 35°26' E 139°43'3 2.9
2016-Aug-19 07:34N 35°27' E 139°40'0 0.4
2016-Aug-19 06:34N 35°27' E 139°40'0 0.0
2016-Aug-19 05:34N 35°27' E 139°40'0 0.0
2016-Aug-19 04:33N 35°27' E 139°40'0 0.0
2016-Aug-19 03:33N 35°27' E 139°40'0 0.0
2016-Aug-19 02:34N 35°27' E 139°40'0 0.0
2016-Aug-19 01:33N 35°27' E 139°40'0 0.0
2016-Aug-19 00:33N 35°27' E 139°40'0 0.0
2016-Aug-18 23:34N 35°27' E 139°40'0 0.0
2016-Aug-18 07:24N 35°27' E 139°40'0 0.0
2016-Aug-18 06:33N 35°27' E 139°40'0 0.0
2016-Aug-18 05:33N 35°27' E 139°40'0 0.0
2016-Aug-18 04:33N 35°27' E 139°40'0 0.0
2016-Aug-18 03:33N 35°27' E 139°40'0 0.0
2016-Aug-18 02:33N 35°27' E 139°40'3 3.0
2016-Aug-18 01:33N 35°29' E 139°42'2 2.0
2016-Aug-18 00:33N 35°30' E 139°44'3 2.9
2016-Aug-17 23:33N 35°27' E 139°43'1 0.5
2016-Aug-17 22:33N 35°27' E 139°42'1 1.1
2016-Aug-17 21:33N 35°27' E 139°41'1 1.2
2016-Aug-17 20:33N 35°27' E 139°40'0 0.0
2016-Aug-17 07:11N 35°27' E 139°40'0 0.0
2016-Aug-17 06:34N 35°27' E 139°40'0 0.0
2016-Aug-17 05:34N 35°27' E 139°40'1 1.2
2016-Aug-17 04:34N 35°26' E 139°41'1 1.2
2016-Aug-17 03:33N 35°27' E 139°40'0 0.0
2016-Aug-17 02:34N 35°27' E 139°40'0 0.0
2016-Aug-17 01:33N 35°27' E 139°40'  
Track history (hours):
 
Tides and Currents Weather Stations Pressure Air Temp Water Temp Dewpoint Dewpoint Depression Visibility Wind Speed Wind Dir Waves Ship Positions

Sakura

Last reported at 2016-Aug-27 00:33 UTC. Time now 2016-Aug-27 01:12 UTC.
Position N 35°28' E 139°42'.

Length 32 m; draft 3.6 m.

Type: Tug. MMSI: 431101178.

Date/timePositionNaut miles runAvg speedWind from/ knotsBaromVisibWave heightAir tempDewpointWater temp
2016-Aug-27 00:33N 35°28' E 139°42'1 0.8
2016-Aug-26 23:33N 35°27' E 139°42'3 2.6
2016-Aug-26 22:34N 35°30' E 139°43'2 2.2
2016-Aug-26 21:34N 35°27' E 139°43'3 2.6
2016-Aug-26 20:33N 35°27' E 139°40'0 0.0
2016-Aug-26 06:33N 35°27' E 139°40'0 0.0
2016-Aug-26 04:33N 35°27' E 139°40'1 1.3
2016-Aug-26 03:34N 35°27' E 139°41'1 0.6
2016-Aug-26 02:33N 35°26' E 139°41'1 1.3
2016-Aug-26 01:34N 35°28' E 139°40'0 0.0
2016-Aug-26 00:34N 35°28' E 139°40'1 1.4
2016-Aug-25 23:34N 35°28' E 139°42'2 1.6
2016-Aug-25 22:33N 35°28' E 139°40'2 2.1
2016-Aug-25 21:33N 35°26' E 139°42'2 0.1
2016-Aug-25 08:23N 35°27' E 139°40'0 0.6
2016-Aug-25 07:33N 35°27' E 139°41'1 0.8
2016-Aug-25 06:34N 35°27' E 139°40'0 0.0
2016-Aug-25 04:33N 35°27' E 139°40'0 0.0
2016-Aug-25 03:34N 35°27' E 139°40'0 0.0
2016-Aug-25 02:34N 35°27' E 139°40'0 0.0
2016-Aug-25 01:34N 35°27' E 139°40'4 4.3
2016-Aug-25 00:33N 35°28' E 139°45'3 2.8
2016-Aug-24 23:34N 35°31' E 139°45'6 5.7
2016-Aug-24 22:33N 35°27' E 139°40'0 0.0
2016-Aug-24 08:11N 35°27' E 139°40'5 8.6
2016-Aug-24 07:33N 35°30' E 139°45'3 2.9
2016-Aug-24 06:33N 35°29' E 139°42'2 1.2
2016-Aug-24 04:33N 35°27' E 139°39'0 0.0
2016-Aug-24 03:33N 35°27' E 139°39'0 0.0
2016-Aug-24 02:33N 35°27' E 139°39'3 3.2
2016-Aug-24 01:34N 35°28' E 139°43'1 0.7
2016-Aug-24 00:33N 35°27' E 139°43'0 0.1
2016-Aug-23 23:33N 35°27' E 139°42'5 5.3
2016-Aug-23 22:34N 35°23' E 139°39'2 1.9
2016-Aug-23 21:34N 35°23' E 139°41'4 3.9
2016-Aug-23 20:34N 35°27' E 139°40'1 0.1
2016-Aug-23 10:34N 35°26' E 139°41'1 1.4
2016-Aug-23 09:34N 35°27' E 139°42'0 0.1
2016-Aug-23 08:34N 35°27' E 139°42'5 5.2
2016-Aug-23 07:34N 35°31' E 139°46'4 3.8
2016-Aug-23 06:34N 35°29' E 139°42'2 2.0
2016-Aug-23 05:34N 35°27' E 139°42'1 1.4
2016-Aug-23 04:34N 35°27' E 139°40'2 1.9
2016-Aug-23 03:33N 35°26' E 139°43'0 0.1
2016-Aug-23 02:34N 35°26' E 139°43'3 3.5
2016-Aug-23 01:34N 35°30' E 139°43'4 3.8
2016-Aug-23 00:34N 35°27' E 139°40'0 0.2
2016-Aug-22 23:34N 35°27' E 139°39'0 0.0
2016-Aug-22 22:34N 35°27' E 139°39'2 1.7
2016-Aug-22 21:34N 35°27' E 139°42'2 1.6
2016-Aug-22 20:34N 35°27' E 139°40'0 0.0
2016-Aug-22 07:10N 35°27' E 139°40'1 1.4
2016-Aug-22 06:33N 35°27' E 139°39'0 0.0
2016-Aug-22 05:33N 35°27' E 139°39'0 0.0
2016-Aug-22 04:33N 35°27' E 139°39'0 0.0
2016-Aug-22 03:33N 35°27' E 139°39'0 0.0
2016-Aug-22 02:33N 35°27' E 139°39'0 0.0
2016-Aug-22 01:33N 35°27' E 139°39'1 0.9
2016-Aug-22 00:33N 35°27' E 139°40'0 0.0
2016-Aug-21 23:33N 35°27' E 139°40'0 0.0
2016-Aug-21 22:33N 35°27' E 139°40'0 0.0
2016-Aug-21 09:26N 35°27' E 139°40'0 0.0
2016-Aug-21 08:33N 35°27' E 139°40'0 0.0
2016-Aug-21 07:33N 35°27' E 139°40'1 1.3
2016-Aug-21 06:33N 35°27' E 139°41'4 3.9
2016-Aug-21 05:33N 35°24' E 139°38'1 1.1
2016-Aug-21 04:33N 35°24' E 139°39'3 3.1
2016-Aug-21 03:33N 35°27' E 139°40'0 0.0
2016-Aug-21 02:33N 35°27' E 139°40'0 0.0
2016-Aug-21 01:34N 35°27' E 139°40'0 0.0
2016-Aug-21 00:33N 35°27' E 139°40'0 0.0
2016-Aug-20 23:33N 35°27' E 139°40'0 0.0
2016-Aug-20 22:33N 35°27' E 139°40'4 0.2
2016-Aug-19 23:33N 35°30' E 139°44'2 2.0
2016-Aug-19 22:33N 35°29' E 139°42'1 1.4
2016-Aug-19 21:33N 35°27' E 139°42'0 0.4
2016-Aug-19 20:33N 35°27' E 139°42'0 0.0
2016-Aug-19 19:33N 35°27' E 139°42'0 0.0
2016-Aug-19 18:33N 35°27' E 139°42'4 3.9
2016-Aug-19 17:33N 35°30' E 139°45'5 4.9
2016-Aug-19 16:33N 35°28' E 139°40'0 0.3
2016-Aug-19 15:33N 35°28' E 139°40'2 1.6
2016-Aug-19 14:33N 35°26' E 139°41'1 0.8
2016-Aug-19 13:33N 35°26' E 139°42'2 2.5
2016-Aug-19 12:33N 35°24' E 139°40'1 0.5
2016-Aug-19 11:34N 35°23' E 139°41'6 6.2
2016-Aug-19 10:34N 35°29' E 139°44'4 3.8
2016-Aug-19 09:34N 35°26' E 139°41'2 1.7
2016-Aug-19 08:33N 35°26' E 139°43'3 2.9
2016-Aug-19 07:34N 35°27' E 139°40'0 0.4
2016-Aug-19 06:34N 35°27' E 139°40'0 0.0
2016-Aug-19 05:34N 35°27' E 139°40'0 0.0
2016-Aug-19 04:33N 35°27' E 139°40'0 0.0
2016-Aug-19 03:33N 35°27' E 139°40'0 0.0
2016-Aug-19 02:34N 35°27' E 139°40'0 0.0
2016-Aug-19 01:33N 35°27' E 139°40'0 0.0
2016-Aug-19 00:33N 35°27' E 139°40'0 0.0
2016-Aug-18 23:34N 35°27' E 139°40'0 0.0
2016-Aug-18 07:24N 35°27' E 139°40'0 0.0
2016-Aug-18 06:33N 35°27' E 139°40'0 0.0
2016-Aug-18 05:33N 35°27' E 139°40'0 0.0
2016-Aug-18 04:33N 35°27' E 139°40'0 0.0
2016-Aug-18 03:33N 35°27' E 139°40'0 0.0
2016-Aug-18 02:33N 35°27' E 139°40'3 3.0
2016-Aug-18 01:33N 35°29' E 139°42'2 2.0
2016-Aug-18 00:33N 35°30' E 139°44'3 2.9
2016-Aug-17 23:33N 35°27' E 139°43'1 0.5
2016-Aug-17 22:33N 35°27' E 139°42'1 1.1
2016-Aug-17 21:33N 35°27' E 139°41'1 1.2
2016-Aug-17 20:33N 35°27' E 139°40'0 0.0
2016-Aug-17 07:11N 35°27' E 139°40'0 0.0
2016-Aug-17 06:34N 35°27' E 139°40'0 0.0
2016-Aug-17 05:34N 35°27' E 139°40'1 1.2
2016-Aug-17 04:34N 35°26' E 139°41'1 1.2
2016-Aug-17 03:33N 35°27' E 139°40'0 0.0
2016-Aug-17 02:34N 35°27' E 139°40'0 0.0
2016-Aug-17 01:33N 35°27' E 139°40'  

Dump ship's entire track history